sensor_id;sensor_type;location;lat;lon;timestamp;temperature;humidity
3942;DHT22;1985;48.592;8.850;2024-03-06T00:00:55;7.60;99.90
3942;DHT22;1985;48.592;8.850;2024-03-06T00:03:20;7.60;99.90
3942;DHT22;1985;48.592;8.850;2024-03-06T00:05:47;7.60;99.90
3942;DHT22;1985;48.592;8.850;2024-03-06T00:08:13;7.50;99.90
3942;DHT22;1985;48.592;8.850;2024-03-06T00:10:40;7.60;99.90
3942;DHT22;1985;48.592;8.850;2024-03-06T00:13:05;7.60;99.90
3942;DHT22;1985;48.592;8.850;2024-03-06T00:15:31;7.60;99.90
3942;DHT22;1985;48.592;8.850;2024-03-06T00:17:57;7.60;99.90
3942;DHT22;1985;48.592;8.850;2024-03-06T00:20:24;7.60;99.90
3942;DHT22;1985;48.592;8.850;2024-03-06T00:22:49;7.60;99.90
3942;DHT22;1985;48.592;8.850;2024-03-06T00:25:15;7.60;99.90
3942;DHT22;1985;48.592;8.850;2024-03-06T00:27:40;7.60;99.90
3942;DHT22;1985;48.592;8.850;2024-03-06T00:30:07;7.50;99.90
3942;DHT22;1985;48.592;8.850;2024-03-06T00:32:32;7.50;99.90
3942;DHT22;1985;48.592;8.850;2024-03-06T00:34:58;7.50;99.90
3942;DHT22;1985;48.592;8.850;2024-03-06T00:37:24;7.50;99.90
3942;DHT22;1985;48.592;8.850;2024-03-06T00:39:49;7.50;99.90
3942;DHT22;1985;48.592;8.850;2024-03-06T00:42:15;7.50;99.90
3942;DHT22;1985;48.592;8.850;2024-03-06T00:44:41;7.50;99.90
3942;DHT22;1985;48.592;8.850;2024-03-06T00:47:07;7.40;99.90
3942;DHT22;1985;48.592;8.850;2024-03-06T00:49:32;7.30;99.90
3942;DHT22;1985;48.592;8.850;2024-03-06T00:51:58;7.30;99.90
3942;DHT22;1985;48.592;8.850;2024-03-06T00:54:23;7.30;99.90
3942;DHT22;1985;48.592;8.850;2024-03-06T00:56:49;7.40;99.90
3942;DHT22;1985;48.592;8.850;2024-03-06T00:59:15;7.30;99.90
3942;DHT22;1985;48.592;8.850;2024-03-06T01:01:40;7.30;99.90
3942;DHT22;1985;48.592;8.850;2024-03-06T01:04:06;7.30;99.90
3942;DHT22;1985;48.592;8.850;2024-03-06T01:06:32;7.30;99.90
3942;DHT22;1985;48.592;8.850;2024-03-06T01:08:58;7.30;99.90
3942;DHT22;1985;48.592;8.850;2024-03-06T01:11:24;7.30;99.90
3942;DHT22;1985;48.592;8.850;2024-03-06T01:13:51;7.40;99.90
3942;DHT22;1985;48.592;8.850;2024-03-06T01:16:17;7.40;99.90
3942;DHT22;1985;48.592;8.850;2024-03-06T01:18:43;7.40;99.90
3942;DHT22;1985;48.592;8.850;2024-03-06T01:21:09;7.30;99.90
3942;DHT22;1985;48.592;8.850;2024-03-06T01:23:35;7.40;99.90
3942;DHT22;1985;48.592;8.850;2024-03-06T01:26:00;7.40;99.90
3942;DHT22;1985;48.592;8.850;2024-03-06T01:28:26;7.30;99.90
3942;DHT22;1985;48.592;8.850;2024-03-06T01:30:51;7.30;99.90
3942;DHT22;1985;48.592;8.850;2024-03-06T01:33:17;7.30;99.90
3942;DHT22;1985;48.592;8.850;2024-03-06T01:35:43;7.40;99.90
3942;DHT22;1985;48.592;8.850;2024-03-06T01:38:08;7.30;99.90
3942;DHT22;1985;48.592;8.850;2024-03-06T01:40:35;7.30;99.90
3942;DHT22;1985;48.592;8.850;2024-03-06T01:43:01;7.30;99.90
3942;DHT22;1985;48.592;8.850;2024-03-06T01:45:30;7.30;99.90
3942;DHT22;1985;48.592;8.850;2024-03-06T01:47:56;7.30;99.90
3942;DHT22;1985;48.592;8.850;2024-03-06T01:50:22;7.40;99.90
3942;DHT22;1985;48.592;8.850;2024-03-06T01:52:49;7.40;99.90
3942;DHT22;1985;48.592;8.850;2024-03-06T01:55:16;7.40;99.90
3942;DHT22;1985;48.592;8.850;2024-03-06T01:57:41;7.40;99.90
3942;DHT22;1985;48.592;8.850;2024-03-06T02:00:09;7.40;99.90
3942;DHT22;1985;48.592;8.850;2024-03-06T02:02:41;7.40;99.90
3942;DHT22;1985;48.592;8.850;2024-03-06T02:05:07;7.40;99.90
3942;DHT22;1985;48.592;8.850;2024-03-06T02:07:33;7.40;99.90
3942;DHT22;1985;48.592;8.850;2024-03-06T02:09:59;7.40;99.90
3942;DHT22;1985;48.592;8.850;2024-03-06T02:12:25;7.50;99.90
3942;DHT22;1985;48.592;8.850;2024-03-06T02:14:50;7.40;99.90
3942;DHT22;1985;48.592;8.850;2024-03-06T02:17:16;7.50;99.90
3942;DHT22;1985;48.592;8.850;2024-03-06T02:19:44;7.50;99.90
3942;DHT22;1985;48.592;8.850;2024-03-06T02:22:11;7.40;99.90
3942;DHT22;1985;48.592;8.850;2024-03-06T02:24:37;7.40;99.90
3942;DHT22;1985;48.592;8.850;2024-03-06T02:27:04;7.50;99.90
3942;DHT22;1985;48.592;8.850;2024-03-06T02:29:32;7.40;99.90
3942;DHT22;1985;48.592;8.850;2024-03-06T02:32:01;7.40;99.90
3942;DHT22;1985;48.592;8.850;2024-03-06T02:34:29;7.40;99.90
3942;DHT22;1985;48.592;8.850;2024-03-06T02:37:02;7.30;99.90
3942;DHT22;1985;48.592;8.850;2024-03-06T02:39:28;7.40;99.90
3942;DHT22;1985;48.592;8.850;2024-03-06T02:41:54;7.30;99.90
3942;DHT22;1985;48.592;8.850;2024-03-06T02:44:19;7.30;99.90
3942;DHT22;1985;48.592;8.850;2024-03-06T02:46:49;7.30;99.90
3942;DHT22;1985;48.592;8.850;2024-03-06T02:49:15;7.30;99.90
3942;DHT22;1985;48.592;8.850;2024-03-06T02:51:41;7.30;99.90
3942;DHT22;1985;48.592;8.850;2024-03-06T02:54:06;7.10;99.90
3942;DHT22;1985;48.592;8.850;2024-03-06T02:56:32;7.00;99.90
3942;DHT22;1985;48.592;8.850;2024-03-06T02:58:58;6.90;99.90
3942;DHT22;1985;48.592;8.850;2024-03-06T03:01:23;6.80;99.90
3942;DHT22;1985;48.592;8.850;2024-03-06T03:03:49;6.80;99.90
3942;DHT22;1985;48.592;8.850;2024-03-06T03:06:16;6.80;99.90
3942;DHT22;1985;48.592;8.850;2024-03-06T03:08:42;6.80;99.90
3942;DHT22;1985;48.592;8.850;2024-03-06T03:11:08;6.80;99.90
3942;DHT22;1985;48.592;8.850;2024-03-06T03:13:33;6.90;99.90
3942;DHT22;1985;48.592;8.850;2024-03-06T03:15:59;7.00;99.90
3942;DHT22;1985;48.592;8.850;2024-03-06T03:18:25;7.10;99.90
3942;DHT22;1985;48.592;8.850;2024-03-06T03:20:50;7.00;99.90
3942;DHT22;1985;48.592;8.850;2024-03-06T03:23:16;6.90;99.90
3942;DHT22;1985;48.592;8.850;2024-03-06T03:25:47;6.90;99.90
3942;DHT22;1985;48.592;8.850;2024-03-06T03:28:14;6.90;99.90
3942;DHT22;1985;48.592;8.850;2024-03-06T03:30:40;6.90;99.90
3942;DHT22;1985;48.592;8.850;2024-03-06T03:33:05;6.90;99.90
3942;DHT22;1985;48.592;8.850;2024-03-06T03:35:31;6.80;99.90
3942;DHT22;1985;48.592;8.850;2024-03-06T03:37:57;6.80;99.90
3942;DHT22;1985;48.592;8.850;2024-03-06T03:40:23;6.70;99.90
3942;DHT22;1985;48.592;8.850;2024-03-06T03:42:48;6.60;99.90
3942;DHT22;1985;48.592;8.850;2024-03-06T03:45:14;6.60;99.90
3942;DHT22;1985;48.592;8.850;2024-03-06T03:47:40;6.50;99.90
3942;DHT22;1985;48.592;8.850;2024-03-06T03:50:08;6.50;99.90
3942;DHT22;1985;48.592;8.850;2024-03-06T03:52:34;6.50;99.90
3942;DHT22;1985;48.592;8.850;2024-03-06T03:55:00;6.50;99.90
3942;DHT22;1985;48.592;8.850;2024-03-06T03:57:26;6.60;99.90
3942;DHT22;1985;48.592;8.850;2024-03-06T03:59:52;6.60;99.90
3942;DHT22;1985;48.592;8.850;2024-03-06T04:02:19;6.60;99.90
3942;DHT22;1985;48.592;8.850;2024-03-06T04:04:44;6.60;99.90
3942;DHT22;1985;48.592;8.850;2024-03-06T04:07:10;6.70;99.90
3942;DHT22;1985;48.592;8.850;2024-03-06T04:09:36;6.70;99.90
3942;DHT22;1985;48.592;8.850;2024-03-06T04:12:02;6.80;99.90
3942;DHT22;1985;48.592;8.850;2024-03-06T04:14:29;6.80;99.90
3942;DHT22;1985;48.592;8.850;2024-03-06T04:16:55;6.90;99.90
3942;DHT22;1985;48.592;8.850;2024-03-06T04:19:21;6.90;99.90
3942;DHT22;1985;48.592;8.850;2024-03-06T04:21:47;6.90;99.90
3942;DHT22;1985;48.592;8.850;2024-03-06T04:24:12;6.90;99.90
3942;DHT22;1985;48.592;8.850;2024-03-06T04:26:38;6.90;99.90
3942;DHT22;1985;48.592;8.850;2024-03-06T04:29:04;6.90;99.90
3942;DHT22;1985;48.592;8.850;2024-03-06T04:31:29;6.90;99.90
3942;DHT22;1985;48.592;8.850;2024-03-06T04:33:55;6.90;99.90
3942;DHT22;1985;48.592;8.850;2024-03-06T04:36:21;6.90;99.90
3942;DHT22;1985;48.592;8.850;2024-03-06T04:38:46;7.00;99.90
3942;DHT22;1985;48.592;8.850;2024-03-06T04:41:12;7.10;99.90
3942;DHT22;1985;48.592;8.850;2024-03-06T04:43:38;7.10;99.90
3942;DHT22;1985;48.592;8.850;2024-03-06T04:46:04;7.10;99.90
3942;DHT22;1985;48.592;8.850;2024-03-06T04:48:29;7.20;99.90
3942;DHT22;1985;48.592;8.850;2024-03-06T04:50:55;7.20;99.90
3942;DHT22;1985;48.592;8.850;2024-03-06T04:53:21;7.20;99.90
3942;DHT22;1985;48.592;8.850;2024-03-06T04:55:47;7.20;99.90
3942;DHT22;1985;48.592;8.850;2024-03-06T04:58:13;7.30;99.90
3942;DHT22;1985;48.592;8.850;2024-03-06T05:00:39;7.30;99.90
3942;DHT22;1985;48.592;8.850;2024-03-06T05:03:07;7.30;99.90
3942;DHT22;1985;48.592;8.850;2024-03-06T05:05:33;7.40;99.90
3942;DHT22;1985;48.592;8.850;2024-03-06T05:07:58;7.50;99.90
3942;DHT22;1985;48.592;8.850;2024-03-06T05:10:24;7.40;99.90
3942;DHT22;1985;48.592;8.850;2024-03-06T05:12:51;7.40;99.90
3942;DHT22;1985;48.592;8.850;2024-03-06T05:15:17;7.30;99.90
3942;DHT22;1985;48.592;8.850;2024-03-06T05:17:45;7.30;99.90
3942;DHT22;1985;48.592;8.850;2024-03-06T05:20:11;7.30;99.90
3942;DHT22;1985;48.592;8.850;2024-03-06T05:22:36;7.30;99.90
3942;DHT22;1985;48.592;8.850;2024-03-06T05:25:02;7.30;99.90
3942;DHT22;1985;48.592;8.850;2024-03-06T05:27:28;7.30;99.90
3942;DHT22;1985;48.592;8.850;2024-03-06T05:29:54;7.20;99.90
3942;DHT22;1985;48.592;8.850;2024-03-06T05:32:20;7.20;99.90
3942;DHT22;1985;48.592;8.850;2024-03-06T05:34:45;7.20;99.90
3942;DHT22;1985;48.592;8.850;2024-03-06T05:37:11;7.20;99.90
3942;DHT22;1985;48.592;8.850;2024-03-06T05:39:37;7.10;99.90
3942;DHT22;1985;48.592;8.850;2024-03-06T05:42:07;7.10;99.90
3942;DHT22;1985;48.592;8.850;2024-03-06T05:44:34;7.10;99.90
3942;DHT22;1985;48.592;8.850;2024-03-06T05:47:01;7.00;99.90
3942;DHT22;1985;48.592;8.850;2024-03-06T05:49:27;7.00;99.90
3942;DHT22;1985;48.592;8.850;2024-03-06T05:51:53;7.00;99.90
3942;DHT22;1985;48.592;8.850;2024-03-06T05:54:20;7.00;99.90
3942;DHT22;1985;48.592;8.850;2024-03-06T05:56:48;6.90;99.90
3942;DHT22;1985;48.592;8.850;2024-03-06T05:59:14;6.80;99.90
3942;DHT22;1985;48.592;8.850;2024-03-06T06:01:40;6.70;99.90
3942;DHT22;1985;48.592;8.850;2024-03-06T06:04:08;6.60;99.90
3942;DHT22;1985;48.592;8.850;2024-03-06T06:06:34;6.50;99.90
3942;DHT22;1985;48.592;8.850;2024-03-06T06:09:00;6.30;99.90
3942;DHT22;1985;48.592;8.850;2024-03-06T06:11:26;6.30;99.90
3942;DHT22;1985;48.592;8.850;2024-03-06T06:13:51;6.30;99.90
3942;DHT22;1985;48.592;8.850;2024-03-06T06:16:17;6.30;99.90
3942;DHT22;1985;48.592;8.850;2024-03-06T06:18:43;6.20;99.90
3942;DHT22;1985;48.592;8.850;2024-03-06T06:21:09;6.20;99.90
3942;DHT22;1985;48.592;8.850;2024-03-06T06:23:34;6.20;99.90
3942;DHT22;1985;48.592;8.850;2024-03-06T06:26:00;6.30;99.90
3942;DHT22;1985;48.592;8.850;2024-03-06T06:28:26;6.30;99.90
3942;DHT22;1985;48.592;8.850;2024-03-06T06:30:52;6.20;99.90
3942;DHT22;1985;48.592;8.850;2024-03-06T06:33:19;6.30;99.90
3942;DHT22;1985;48.592;8.850;2024-03-06T06:35:44;6.30;99.90
3942;DHT22;1985;48.592;8.850;2024-03-06T06:38:10;6.40;99.90
3942;DHT22;1985;48.592;8.850;2024-03-06T06:40:36;6.40;99.90
3942;DHT22;1985;48.592;8.850;2024-03-06T06:43:01;6.40;99.90
3942;DHT22;1985;48.592;8.850;2024-03-06T06:45:27;6.50;99.90
3942;DHT22;1985;48.592;8.850;2024-03-06T06:47:53;6.50;99.90
3942;DHT22;1985;48.592;8.850;2024-03-06T06:50:19;6.50;99.90
3942;DHT22;1985;48.592;8.850;2024-03-06T06:52:48;6.40;99.90
3942;DHT22;1985;48.592;8.850;2024-03-06T06:55:14;6.40;99.90
3942;DHT22;1985;48.592;8.850;2024-03-06T06:57:39;6.40;99.90
3942;DHT22;1985;48.592;8.850;2024-03-06T07:00:06;6.40;99.90
3942;DHT22;1985;48.592;8.850;2024-03-06T07:02:42;6.50;99.90
3942;DHT22;1985;48.592;8.850;2024-03-06T07:05:09;6.60;99.90
3942;DHT22;1985;48.592;8.850;2024-03-06T07:07:35;6.60;99.90
3942;DHT22;1985;48.592;8.850;2024-03-06T07:10:02;6.60;99.90
3942;DHT22;1985;48.592;8.850;2024-03-06T07:12:28;6.60;99.90
3942;DHT22;1985;48.592;8.850;2024-03-06T07:14:54;6.60;99.90
3942;DHT22;1985;48.592;8.850;2024-03-06T07:17:20;6.50;99.90
3942;DHT22;1985;48.592;8.850;2024-03-06T07:19:45;6.50;99.90
3942;DHT22;1985;48.592;8.850;2024-03-06T07:22:11;6.50;99.90
3942;DHT22;1985;48.592;8.850;2024-03-06T07:24:36;6.50;99.90
3942;DHT22;1985;48.592;8.850;2024-03-06T07:27:02;6.50;99.90
3942;DHT22;1985;48.592;8.850;2024-03-06T07:29:28;6.40;99.90
3942;DHT22;1985;48.592;8.850;2024-03-06T07:31:54;6.50;99.90
3942;DHT22;1985;48.592;8.850;2024-03-06T07:34:20;6.50;99.90
3942;DHT22;1985;48.592;8.850;2024-03-06T07:36:49;6.40;99.90
3942;DHT22;1985;48.592;8.850;2024-03-06T07:39:19;6.40;99.90
3942;DHT22;1985;48.592;8.850;2024-03-06T07:41:45;6.50;99.90
3942;DHT22;1985;48.592;8.850;2024-03-06T07:44:10;6.50;99.90
3942;DHT22;1985;48.592;8.850;2024-03-06T07:46:36;6.60;99.90
3942;DHT22;1985;48.592;8.850;2024-03-06T07:49:02;6.80;99.90
3942;DHT22;1985;48.592;8.850;2024-03-06T07:51:32;6.80;99.90
3942;DHT22;1985;48.592;8.850;2024-03-06T07:53:58;6.80;99.90
3942;DHT22;1985;48.592;8.850;2024-03-06T07:56:27;6.80;99.90
3942;DHT22;1985;48.592;8.850;2024-03-06T07:58:54;6.80;99.90
3942;DHT22;1985;48.592;8.850;2024-03-06T08:01:20;6.80;99.90
3942;DHT22;1985;48.592;8.850;2024-03-06T08:03:49;6.90;99.90
3942;DHT22;1985;48.592;8.850;2024-03-06T08:06:15;7.00;99.90
3942;DHT22;1985;48.592;8.850;2024-03-06T08:08:42;7.00;99.90
3942;DHT22;1985;48.592;8.850;2024-03-06T08:11:12;7.10;99.90
3942;DHT22;1985;48.592;8.850;2024-03-06T08:13:38;7.10;99.90
3942;DHT22;1985;48.592;8.850;2024-03-06T08:16:05;7.10;99.90
3942;DHT22;1985;48.592;8.850;2024-03-06T08:18:33;7.20;99.90
3942;DHT22;1985;48.592;8.850;2024-03-06T08:20:59;7.20;99.90
3942;DHT22;1985;48.592;8.850;2024-03-06T08:23:24;7.30;99.90
3942;DHT22;1985;48.592;8.850;2024-03-06T08:25:51;7.30;99.90
3942;DHT22;1985;48.592;8.850;2024-03-06T08:28:16;7.40;99.90
3942;DHT22;1985;48.592;8.850;2024-03-06T08:30:42;7.30;99.90
3942;DHT22;1985;48.592;8.850;2024-03-06T08:33:09;7.20;99.90
3942;DHT22;1985;48.592;8.850;2024-03-06T08:35:35;7.20;99.90
3942;DHT22;1985;48.592;8.850;2024-03-06T08:38:01;7.20;99.90
3942;DHT22;1985;48.592;8.850;2024-03-06T08:40:26;7.20;99.90
3942;DHT22;1985;48.592;8.850;2024-03-06T08:42:54;7.20;99.90
3942;DHT22;1985;48.592;8.850;2024-03-06T08:45:20;7.40;99.90
3942;DHT22;1985;48.592;8.850;2024-03-06T08:47:47;7.50;99.90
3942;DHT22;1985;48.592;8.850;2024-03-06T08:50:16;7.50;99.90
3942;DHT22;1985;48.592;8.850;2024-03-06T08:52:42;7.50;99.90
3942;DHT22;1985;48.592;8.850;2024-03-06T08:55:08;7.40;99.90
3942;DHT22;1985;48.592;8.850;2024-03-06T08:57:35;7.40;99.90
3942;DHT22;1985;48.592;8.850;2024-03-06T09:00:02;7.30;99.90
3942;DHT22;1985;48.592;8.850;2024-03-06T09:02:27;7.30;99.90
3942;DHT22;1985;48.592;8.850;2024-03-06T09:04:53;7.30;99.90
3942;DHT22;1985;48.592;8.850;2024-03-06T09:07:19;7.30;99.90
3942;DHT22;1985;48.592;8.850;2024-03-06T09:09:46;7.40;99.90
3942;DHT22;1985;48.592;8.850;2024-03-06T09:12:11;7.30;99.90
3942;DHT22;1985;48.592;8.850;2024-03-06T09:14:38;7.30;99.90
3942;DHT22;1985;48.592;8.850;2024-03-06T09:17:04;7.30;99.90
3942;DHT22;1985;48.592;8.850;2024-03-06T09:19:31;7.40;99.90
3942;DHT22;1985;48.592;8.850;2024-03-06T09:21:58;7.40;99.90
3942;DHT22;1985;48.592;8.850;2024-03-06T09:24:24;7.30;99.90
3942;DHT22;1985;48.592;8.850;2024-03-06T09:26:53;7.40;99.90
3942;DHT22;1985;48.592;8.850;2024-03-06T09:29:19;7.50;99.90
3942;DHT22;1985;48.592;8.850;2024-03-06T09:31:46;7.60;99.90
3942;DHT22;1985;48.592;8.850;2024-03-06T09:34:13;7.60;99.90
3942;DHT22;1985;48.592;8.850;2024-03-06T09:36:46;7.60;99.90
3942;DHT22;1985;48.592;8.850;2024-03-06T09:39:16;7.60;99.90
3942;DHT22;1985;48.592;8.850;2024-03-06T09:41:46;7.70;99.90
3942;DHT22;1985;48.592;8.850;2024-03-06T09:44:14;7.80;99.90
3942;DHT22;1985;48.592;8.850;2024-03-06T09:46:46;7.70;99.90
3942;DHT22;1985;48.592;8.850;2024-03-06T09:49:15;7.70;99.90
3942;DHT22;1985;48.592;8.850;2024-03-06T09:51:46;7.80;99.90
3942;DHT22;1985;48.592;8.850;2024-03-06T09:54:13;7.80;99.90
3942;DHT22;1985;48.592;8.850;2024-03-06T09:56:41;7.80;99.90
3942;DHT22;1985;48.592;8.850;2024-03-06T09:59:09;7.80;99.90
3942;DHT22;1985;48.592;8.850;2024-03-06T10:01:40;7.90;99.90
3942;DHT22;1985;48.592;8.850;2024-03-06T10:06:46;8.20;99.90
3942;DHT22;1985;48.592;8.850;2024-03-06T10:09:12;8.00;99.90
3942;DHT22;1985;48.592;8.850;2024-03-06T10:11:41;8.00;99.90
3942;DHT22;1985;48.592;8.850;2024-03-06T10:14:08;8.00;99.90
3942;DHT22;1985;48.592;8.850;2024-03-06T10:16:36;8.10;99.90
3942;DHT22;1985;48.592;8.850;2024-03-06T10:19:18;8.00;99.90
3942;DHT22;1985;48.592;8.850;2024-03-06T10:21:47;8.00;99.90
3942;DHT22;1985;48.592;8.850;2024-03-06T10:24:21;7.90;99.90
3942;DHT22;1985;48.592;8.850;2024-03-06T10:26:49;7.90;99.90
3942;DHT22;1985;48.592;8.850;2024-03-06T10:29:18;8.00;99.90
3942;DHT22;1985;48.592;8.850;2024-03-06T10:31:54;8.00;99.90
3942;DHT22;1985;48.592;8.850;2024-03-06T10:34:21;8.10;99.90
3942;DHT22;1985;48.592;8.850;2024-03-06T10:36:54;8.20;99.90
3942;DHT22;1985;48.592;8.850;2024-03-06T10:39:21;8.10;99.90
3942;DHT22;1985;48.592;8.850;2024-03-06T10:41:54;8.10;99.90
3942;DHT22;1985;48.592;8.850;2024-03-06T10:44:25;8.10;99.90
3942;DHT22;1985;48.592;8.850;2024-03-06T10:47:02;8.10;99.90
3942;DHT22;1985;48.592;8.850;2024-03-06T10:49:28;8.10;99.90
3942;DHT22;1985;48.592;8.850;2024-03-06T10:52:13;8.20;99.90
3942;DHT22;1985;48.592;8.850;2024-03-06T10:54:43;8.30;99.90
3942;DHT22;1985;48.592;8.850;2024-03-06T10:57:11;8.40;99.90
3942;DHT22;1985;48.592;8.850;2024-03-06T10:59:37;8.50;99.90
3942;DHT22;1985;48.592;8.850;2024-03-06T11:02:04;8.50;99.90
3942;DHT22;1985;48.592;8.850;2024-03-06T11:04:30;8.50;99.90
3942;DHT22;1985;48.592;8.850;2024-03-06T11:07:01;8.60;99.90
3942;DHT22;1985;48.592;8.850;2024-03-06T11:09:28;8.60;99.90
3942;DHT22;1985;48.592;8.850;2024-03-06T11:11:54;8.50;99.90
3942;DHT22;1985;48.592;8.850;2024-03-06T11:14:24;8.50;99.90
3942;DHT22;1985;48.592;8.850;2024-03-06T11:17:09;8.60;99.90
3942;DHT22;1985;48.592;8.850;2024-03-06T11:28:17;8.60;99.90
3942;DHT22;1985;48.592;8.850;2024-03-06T11:33:41;8.50;99.90
3942;DHT22;1985;48.592;8.850;2024-03-06T11:36:25;8.50;99.90
3942;DHT22;1985;48.592;8.850;2024-03-06T11:39:07;8.60;99.90
3942;DHT22;1985;48.592;8.850;2024-03-06T11:44:13;8.60;99.90
3942;DHT22;1985;48.592;8.850;2024-03-06T11:46:49;8.60;99.90
3942;DHT22;1985;48.592;8.850;2024-03-06T11:49:23;8.60;99.90
3942;DHT22;1985;48.592;8.850;2024-03-06T11:51:53;8.60;99.90
3942;DHT22;1985;48.592;8.850;2024-03-06T11:54:19;8.60;99.90
3942;DHT22;1985;48.592;8.850;2024-03-06T11:56:56;8.60;99.90
3942;DHT22;1985;48.592;8.850;2024-03-06T11:59:26;8.60;99.90
3942;DHT22;1985;48.592;8.850;2024-03-06T12:01:57;8.50;99.90
3942;DHT22;1985;48.592;8.850;2024-03-06T12:04:24;8.60;99.90
3942;DHT22;1985;48.592;8.850;2024-03-06T12:06:50;8.50;99.90
3942;DHT22;1985;48.592;8.850;2024-03-06T12:09:16;8.60;99.90
3942;DHT22;1985;48.592;8.850;2024-03-06T12:11:43;8.60;99.90
3942;DHT22;1985;48.592;8.850;2024-03-06T12:14:13;8.50;99.90
3942;DHT22;1985;48.592;8.850;2024-03-06T12:16:40;8.40;99.90
3942;DHT22;1985;48.592;8.850;2024-03-06T12:19:05;8.50;99.90
3942;DHT22;1985;48.592;8.850;2024-03-06T12:21:31;8.60;99.90
3942;DHT22;1985;48.592;8.850;2024-03-06T12:24:10;8.60;99.90
3942;DHT22;1985;48.592;8.850;2024-03-06T12:26:37;8.60;99.90
3942;DHT22;1985;48.592;8.850;2024-03-06T12:29:11;8.70;99.90
3942;DHT22;1985;48.592;8.850;2024-03-06T12:31:38;8.60;99.90
3942;DHT22;1985;48.592;8.850;2024-03-06T12:34:07;8.60;99.90
3942;DHT22;1985;48.592;8.850;2024-03-06T12:36:34;8.40;99.90
3942;DHT22;1985;48.592;8.850;2024-03-06T12:39:04;8.40;99.90
3942;DHT22;1985;48.592;8.850;2024-03-06T12:41:41;8.30;99.90
3942;DHT22;1985;48.592;8.850;2024-03-06T12:44:06;8.50;99.90
3942;DHT22;1985;48.592;8.850;2024-03-06T12:46:32;8.50;99.90
3942;DHT22;1985;48.592;8.850;2024-03-06T12:48:58;8.50;99.90
3942;DHT22;1985;48.592;8.850;2024-03-06T12:51:24;8.40;99.90
3942;DHT22;1985;48.592;8.850;2024-03-06T12:53:49;8.40;99.90
3942;DHT22;1985;48.592;8.850;2024-03-06T12:56:17;8.30;99.90
3942;DHT22;1985;48.592;8.850;2024-03-06T12:58:42;8.40;99.90
3942;DHT22;1985;48.592;8.850;2024-03-06T13:01:08;8.40;99.90
3942;DHT22;1985;48.592;8.850;2024-03-06T13:03:34;8.30;99.90
3942;DHT22;1985;48.592;8.850;2024-03-06T13:06:00;8.30;99.90
3942;DHT22;1985;48.592;8.850;2024-03-06T13:08:26;8.20;99.90
3942;DHT22;1985;48.592;8.850;2024-03-06T13:10:52;8.20;99.90
3942;DHT22;1985;48.592;8.850;2024-03-06T13:13:17;8.20;99.90
3942;DHT22;1985;48.592;8.850;2024-03-06T13:15:43;8.20;99.90
3942;DHT22;1985;48.592;8.850;2024-03-06T13:18:09;8.10;99.90
3942;DHT22;1985;48.592;8.850;2024-03-06T13:20:35;8.10;99.90
3942;DHT22;1985;48.592;8.850;2024-03-06T13:23:01;8.10;99.90
3942;DHT22;1985;48.592;8.850;2024-03-06T13:25:26;8.10;99.90
3942;DHT22;1985;48.592;8.850;2024-03-06T13:27:52;8.10;99.90
3942;DHT22;1985;48.592;8.850;2024-03-06T13:30:18;7.90;99.90
3942;DHT22;1985;48.592;8.850;2024-03-06T13:32:44;7.90;99.90
3942;DHT22;1985;48.592;8.850;2024-03-06T13:35:13;7.90;99.90
3942;DHT22;1985;48.592;8.850;2024-03-06T13:37:41;8.00;99.90
3942;DHT22;1985;48.592;8.850;2024-03-06T13:40:08;8.00;99.90
3942;DHT22;1985;48.592;8.850;2024-03-06T13:42:35;8.00;99.90
3942;DHT22;1985;48.592;8.850;2024-03-06T13:45:01;8.10;99.90
3942;DHT22;1985;48.592;8.850;2024-03-06T13:47:27;8.10;99.90
3942;DHT22;1985;48.592;8.850;2024-03-06T13:49:52;8.30;99.90
3942;DHT22;1985;48.592;8.850;2024-03-06T13:52:20;8.30;99.90
3942;DHT22;1985;48.592;8.850;2024-03-06T13:54:47;8.50;99.90
3942;DHT22;1985;48.592;8.850;2024-03-06T13:57:16;8.50;99.90
3942;DHT22;1985;48.592;8.850;2024-03-06T13:59:42;8.40;99.90
3942;DHT22;1985;48.592;8.850;2024-03-06T14:02:08;8.40;99.90
3942;DHT22;1985;48.592;8.850;2024-03-06T14:04:33;8.40;99.90
3942;DHT22;1985;48.592;8.850;2024-03-06T14:06:59;8.50;99.90
3942;DHT22;1985;48.592;8.850;2024-03-06T14:09:26;8.40;99.90
3942;DHT22;1985;48.592;8.850;2024-03-06T14:11:53;8.40;99.90
3942;DHT22;1985;48.592;8.850;2024-03-06T14:14:19;8.40;99.90
3942;DHT22;1985;48.592;8.850;2024-03-06T14:16:45;8.40;99.90
3942;DHT22;1985;48.592;8.850;2024-03-06T14:19:11;8.10;99.90
3942;DHT22;1985;48.592;8.850;2024-03-06T14:21:37;8.10;99.90
3942;DHT22;1985;48.592;8.850;2024-03-06T14:24:03;8.10;99.90
3942;DHT22;1985;48.592;8.850;2024-03-06T14:26:31;8.10;99.90
3942;DHT22;1985;48.592;8.850;2024-03-06T14:28:57;8.20;99.90
3942;DHT22;1985;48.592;8.850;2024-03-06T14:31:22;8.20;99.90
3942;DHT22;1985;48.592;8.850;2024-03-06T14:33:48;8.20;99.90
3942;DHT22;1985;48.592;8.850;2024-03-06T14:36:18;8.20;99.90
3942;DHT22;1985;48.592;8.850;2024-03-06T14:38:44;8.10;99.90
3942;DHT22;1985;48.592;8.850;2024-03-06T14:41:10;8.10;99.90
3942;DHT22;1985;48.592;8.850;2024-03-06T14:43:36;8.10;99.90
3942;DHT22;1985;48.592;8.850;2024-03-06T14:46:05;8.10;99.90
3942;DHT22;1985;48.592;8.850;2024-03-06T14:48:32;8.10;99.90
3942;DHT22;1985;48.592;8.850;2024-03-06T14:50:59;8.10;99.90
3942;DHT22;1985;48.592;8.850;2024-03-06T14:53:25;8.10;99.90
3942;DHT22;1985;48.592;8.850;2024-03-06T14:55:51;8.10;99.90
3942;DHT22;1985;48.592;8.850;2024-03-06T14:58:16;8.20;99.90
3942;DHT22;1985;48.592;8.850;2024-03-06T15:00:42;8.10;99.90
3942;DHT22;1985;48.592;8.850;2024-03-06T15:03:08;8.10;99.90
3942;DHT22;1985;48.592;8.850;2024-03-06T15:05:34;8.00;99.90
3942;DHT22;1985;48.592;8.850;2024-03-06T15:08:00;8.10;99.90
3942;DHT22;1985;48.592;8.850;2024-03-06T15:10:26;8.20;99.90
3942;DHT22;1985;48.592;8.850;2024-03-06T15:12:52;8.10;99.90
3942;DHT22;1985;48.592;8.850;2024-03-06T15:15:17;8.10;99.90
3942;DHT22;1985;48.592;8.850;2024-03-06T15:17:43;8.10;99.90
3942;DHT22;1985;48.592;8.850;2024-03-06T15:20:11;8.10;99.90
3942;DHT22;1985;48.592;8.850;2024-03-06T15:22:37;8.20;99.90
3942;DHT22;1985;48.592;8.850;2024-03-06T15:25:10;8.30;99.90
3942;DHT22;1985;48.592;8.850;2024-03-06T15:27:37;8.30;99.90
3942;DHT22;1985;48.592;8.850;2024-03-06T15:30:04;8.30;99.90
3942;DHT22;1985;48.592;8.850;2024-03-06T15:32:30;8.20;99.90
3942;DHT22;1985;48.592;8.850;2024-03-06T15:34:55;8.10;99.90
3942;DHT22;1985;48.592;8.850;2024-03-06T15:37:23;8.00;99.90
3942;DHT22;1985;48.592;8.850;2024-03-06T15:39:52;8.00;99.90
3942;DHT22;1985;48.592;8.850;2024-03-06T15:42:18;8.00;99.90
3942;DHT22;1985;48.592;8.850;2024-03-06T15:44:45;8.00;99.90
3942;DHT22;1985;48.592;8.850;2024-03-06T15:47:10;8.00;99.90
3942;DHT22;1985;48.592;8.850;2024-03-06T15:49:36;8.00;99.90
3942;DHT22;1985;48.592;8.850;2024-03-06T15:52:02;8.00;99.90
3942;DHT22;1985;48.592;8.850;2024-03-06T15:54:29;8.00;99.90
3942;DHT22;1985;48.592;8.850;2024-03-06T15:56:54;7.90;99.90
3942;DHT22;1985;48.592;8.850;2024-03-06T15:59:20;7.90;99.90
3942;DHT22;1985;48.592;8.850;2024-03-06T16:01:46;8.00;99.90
3942;DHT22;1985;48.592;8.850;2024-03-06T16:04:12;8.00;99.90
3942;DHT22;1985;48.592;8.850;2024-03-06T16:06:38;8.00;99.90
3942;DHT22;1985;48.592;8.850;2024-03-06T16:09:05;7.90;99.90
3942;DHT22;1985;48.592;8.850;2024-03-06T16:11:31;7.80;99.90
3942;DHT22;1985;48.592;8.850;2024-03-06T16:13:57;7.80;99.90
3942;DHT22;1985;48.592;8.850;2024-03-06T16:16:25;7.80;99.90
3942;DHT22;1985;48.592;8.850;2024-03-06T16:18:51;7.80;99.90
3942;DHT22;1985;48.592;8.850;2024-03-06T16:21:20;7.80;99.90
3942;DHT22;1985;48.592;8.850;2024-03-06T16:23:48;7.70;99.90
3942;DHT22;1985;48.592;8.850;2024-03-06T16:26:14;7.70;99.90
3942;DHT22;1985;48.592;8.850;2024-03-06T16:28:40;7.70;99.90
3942;DHT22;1985;48.592;8.850;2024-03-06T16:31:06;7.70;99.90